Rector, Illinois
Current Conditions -  °F | °C
As of 4:15 PM on Friday 31 Oct 2014 (Local Time) from KHSB Reporting Station
Broken Clouds Broken Clouds  
Wind Chill: 37°   Ceiling: 5000
Heat Index: 45°   Visibility: 10mi
Dew Point: 26°   Wind: 16mph
Humidity: 48%   Direction: 320°NW
Pressure: 30.22"   Gusts: 24mph
Location:  37.8101°N, 88.4411°W
Report Text: KHSB 312115Z AUTO 32014G21KT 10SM BKN050 BKN065 BKN080 07/M03 A3022 RMK AO2 T00701034
Loading
Personal Weather Stations






























Interactive Weather Map
Tropical Storm Tracking
New forecast layout! Learn more

10-Day Weather Forecast

Advertisements
Track Severe Weather on mobile